Latest Weather Observations for White Cliffs AWS

IDN60801

Issued at 6:34 pm EDT Thursday 29 January 2015 (issued every 30 minutes, with the page automatically refreshed every 10 minutes)

About weather observations | Map of weather stations | Latest weather observations for NSW | Other Formats
Station Details ID: 046129 Name: WHITE CLIFFS AWS Lat: -30.85 Lon: 143.07 Height: 158.0 m
Data from the previous 72 hours. | See also: Recent months at White Cliffs AWS
Date/Time
EDT
Temp
°C
App
Temp
°C
Dew
Point
Rel
Hum
%
Delta-T
°C
Wind Press
QNH
hPa
Press
MSL
hPa
Rain
since 9 am
mm
Dir
 
Spd
km/h
Gust
km/h
Spd
kts
Gust
kts
29/06:30pm 32.2 27.6 9.7 25 12.9 S 24 37 13 20 1008.9 1007.8 0.0
29/06:00pm 32.3 28.7 10.4 26 12.7 S 20 28 11 15 1008.9 1007.8 0.0
29/05:30pm 32.2 28.8 11.4 28 12.2 S 20 28 11 15 1009.1 1008.0 0.0
29/05:00pm 31.8 27.6 9.9 26 12.6 SSE 22 32 12 17 1009.2 1008.1 0.0
29/04:30pm 32.3 28.7 9.8 25 12.9 SSE 19 28 10 15 1009.7 1008.6 0.0
29/04:00pm 32.3 29.4 9.8 25 12.9 SSW 15 24 8 13 1010.1 1008.9 0.0
29/03:30pm 31.9 28.2 9.4 25 12.8 SSE 19 26 10 14 1010.5 1009.3 0.0
29/03:00pm 31.1 27.4 9.3 26 12.3 SSW 19 28 10 15 1010.9 1009.7 0.0
29/02:30pm 30.9 27.4 10.8 29 11.6 S 20 33 11 18 1011.3 1010.2 0.0
29/02:00pm 30.7 27.0 10.1 28 11.8 SSE 20 30 11 16 1011.7 1010.6 0.0
29/01:30pm 30.4 27.2 9.8 28 11.7 SE 17 28 9 15 1011.9 1010.8 0.0
29/01:00pm 30.2 27.3 9.7 28 11.6 SSE 15 26 8 14 1012.1 1011.0 0.0
29/12:30pm 29.8 27.1 10.4 30 11.1 ESE 15 20 8 11 1012.3 1011.2 0.0
29/12:00pm 29.1 27.0 11.2 33 10.3 ESE 13 22 7 12 1012.6 1011.5 0.0
29/11:30am 27.6 25.8 10.8 35 9.6 E 11 19 6 10 1012.8 1011.7 0.0
29/11:00am 27.2 25.3 11.7 38 9.0 E 13 20 7 11 1013.0 1011.9 0.0
29/10:30am 26.2 24.2 11.5 40 8.4 ENE 13 17 7 9 1012.9 1011.8 0.0
29/10:00am 25.8 23.9 11.9 42 8.0 E 13 20 7 11 1012.9 1011.8 0.0
29/09:30am 25.3 22.8 12.2 44 7.6 E 17 20 9 11 1012.7 1011.6 0.0
29/09:00am 24.2 21.7 12.2 47 6.9 E 17 24 9 13 1012.6 1011.5 0.0
29/08:30am 23.4 21.1 13.0 52 6.0 E 17 24 9 13 1012.2 1011.1 0.0
29/08:00am 22.3 20.0 13.1 56 5.3 E 17 20 9 11 1011.7 1010.6 0.0
29/07:30am 20.9 19.5 13.4 62 4.3 E 13 15 7 8 1011.4 1010.3 0.0
29/07:00am 20.3 18.4 13.0 63 4.2 E 15 17 8 9 1010.9 1009.7 0.0
29/06:30am 21.0 19.2 13.2 61 4.5 E 15 19 8 10 1010.6 1009.4 0.0
29/06:00am 21.5 19.7 13.2 59 4.8 ESE 15 19 8 10 1010.4 1009.2 0.0
29/05:30am 21.9 19.7 13.3 58 5.0 ESE 17 20 9 11 1010.1 1008.9 0.0
29/05:00am 22.2 20.4 13.3 57 5.2 ESE 15 19 8 10 1009.7 1008.6 0.0
29/04:30am 22.3 19.9 12.8 55 5.5 ESE 17 20 9 11 1009.6 1008.5 0.0
29/04:00am 23.0 20.7 12.9 53 5.8 ESE 17 22 9 12 1009.4 1008.3 0.0
29/03:30am 23.3 20.8 12.3 50 6.3 ESE 17 22 9 12 1009.4 1008.3 0.0
29/03:00am 24.0 21.3 11.7 46 7.0 ESE 17 20 9 11 1009.5 1008.4 0.0
29/02:30am 24.0 21.2 11.3 45 7.2 ESE 17 19 9 10 1009.6 1008.5 0.0
29/02:00am 24.9 21.5 10.4 40 8.1 ESE 19 22 10 12 1009.7 1008.6 0.0
29/01:30am 25.4 21.3 10.1 38 8.5 SE 22 26 12 14 1009.7 1008.6 0.0
29/01:00am 25.0 21.7 11.6 43 7.7 S 20 28 11 15 1009.6 1008.5 0.0
29/12:30am 24.8 22.1 11.7 44 7.5 S 17 20 9 11 1009.5 1008.4 0.0
29/12:00am 25.0 22.3 11.6 43 7.7 SSW 17 20 9 11 1009.5 1008.4 0.0
 
Date/Time
EDT
Temp
°C
App
Temp
°C
Dew
Point
Rel
Hum
%
Delta-T
°C
Wind Press
QNH
hPa
Press
MSL
hPa
Rain
since 9 am
mm
Dir
 
Spd
km/h
Gust
km/h
Spd
kts
Gust
kts
28/11:30pm 26.6 23.2 10.7 37 9.0 S 19 24 10 13 1009.6 1008.5 0.0
28/11:00pm 26.9 23.6 11.0 37 9.1 S 19 24 10 13 1009.4 1008.3 0.0
28/10:30pm 27.3 24.0 10.9 36 9.4 S 19 22 10 12 1009.2 1008.1 0.0
28/10:00pm 28.0 24.6 10.7 34 9.9 S 19 22 10 12 1009.1 1008.0 0.0
28/09:30pm 28.5 25.3 11.1 34 10.0 S 19 22 10 12 1008.9 1007.8 0.0
28/09:00pm 29.1 25.9 11.2 33 10.4 S 19 24 10 13 1008.4 1007.3 0.0
28/08:30pm 29.8 25.9 10.9 31 10.9 S 22 32 12 17 1008.1 1007.0 0.0
28/08:00pm 30.3 25.4 11.3 31 11.1 S 28 35 15 19 1007.8 1006.7 0.0
28/07:30pm 31.3 26.5 11.7 30 11.5 SSE 28 39 15 21 1007.6 1006.5 0.0
28/07:00pm 31.4 26.3 10.7 28 12.0 SSE 28 37 15 20 1007.3 1006.2 0.0
28/06:30pm 31.7 26.5 11.5 29 11.9 S 30 41 16 22 1007.1 1006.0 0.0
28/06:15pm 31.5 26.2 11.3 29 11.8 S 30 48 16 26 1007.1 1006.0 0.0
28/06:00pm 31.5 25.8 11.3 29 11.8 S 32 44 17 24 1007.1 1006.0 0.0
28/05:46pm 31.8 27.1 12.1 30 11.7 SSE 28 50 15 27 1007.0 1005.9 0.0
28/05:30pm 31.9 27.6 12.2 30 11.7 SSE 26 37 14 20 1007.3 1006.2 0.0
28/05:01pm 31.9 27.1 11.7 29 11.9 S 28 50 15 27 1007.3 1006.2 0.0
28/05:00pm 31.9 27.6 12.2 30 11.7 S 26 41 14 22 1007.3 1006.2 0.0
28/04:30pm 31.3 26.9 11.7 30 11.5 SSE 26 39 14 21 1007.6 1006.5 0.0
28/04:00pm 31.1 26.4 12.0 31 11.3 SSE 28 41 15 22 1007.9 1006.8 0.0
28/03:30pm 31.0 26.3 11.9 31 11.3 S 28 41 15 22 1008.1 1007.0 0.0
28/03:00pm 30.4 25.9 11.4 31 11.1 S 26 33 14 18 1008.4 1007.3 0.0
28/02:30pm 30.1 25.7 11.6 32 10.8 S 26 41 14 22 1008.7 1007.6 0.0
28/02:00pm 28.8 23.9 11.4 34 10.1 S 28 39 15 21 1009.0 1007.9 0.0
28/01:30pm 28.1 23.9 11.2 35 9.7 S 24 35 13 19 1009.4 1008.3 0.0
28/01:00pm 28.2 24.1 11.3 35 9.8 SSE 24 37 13 20 1009.6 1008.5 0.0
28/12:30pm 27.0 22.4 11.1 37 9.1 SSE 26 33 14 18 1009.9 1008.7 0.0
28/12:00pm 26.2 21.9 10.8 38 8.7 SSE 24 33 13 18 1010.1 1008.9 0.0
28/11:30am 25.1 20.2 9.8 38 8.5 SSE 26 33 14 18 1010.4 1009.2 0.0
28/11:00am 24.0 18.5 9.2 39 8.1 SSE 28 37 15 20 1010.5 1009.3 0.0
28/10:30am 22.9 16.4 8.2 39 7.8 S 32 37 17 20 1010.5 1009.3 0.0
28/10:00am 21.9 15.8 8.1 41 7.3 S 30 41 16 22 1010.3 1009.1 0.0
28/09:30am 21.4 15.7 8.3 43 6.9 SSE 28 35 15 19 1010.3 1009.1 0.0
28/09:00am 20.5 14.3 7.8 44 6.6 S 30 41 16 22 1010.3 1009.1 0.0
28/08:30am 19.7 12.5 7.8 46 6.2 S 35 44 19 24 1009.7 1008.6 0.0
28/08:00am 19.3 13.0 7.4 46 6.1 S 30 41 16 22 1009.5 1008.4 0.0
28/07:30am 18.7 12.2 6.5 45 6.1 S 30 37 16 20 1009.1 1008.0 0.0
28/07:00am 18.5 12.5 5.4 42 6.4 S 26 33 14 18 1008.6 1007.5 0.0
28/06:30am 18.7 12.6 4.8 40 6.7 S 26 33 14 18 1008.1 1007.0 0.0
28/06:00am 18.9 13.0 3.9 37 7.2 S 24 30 13 16 1007.8 1006.7 0.0
28/05:30am 18.8 13.2 3.4 36 7.3 S 22 26 12 14 1007.5 1006.4 0.0
28/05:00am 19.0 13.3 2.8 34 7.6 S 22 26 12 14 1007.4 1006.3 0.0
28/04:30am 19.2 13.1 2.6 33 7.7 S 24 30 13 16 1007.3 1006.2 0.0
28/04:00am 19.0 13.7 2.8 34 7.6 S 20 24 11 13 1007.4 1006.3 0.0
28/03:30am 19.4 14.0 2.7 33 7.8 S 20 24 11 13 1007.5 1006.4 0.0
28/03:00am 18.8 14.5 3.4 36 7.3 S 15 19 8 10 1008.0 1006.9 0.0
28/02:30am 19.2 14.6 3.8 36 7.4 SSW 17 20 9 11 1008.4 1007.3 0.0
28/02:00am 19.1 15.0 4.1 37 7.2 SSW 15 17 8 9 1008.7 1007.6 0.0
28/01:30am 19.1 15.0 4.1 37 7.2 SSW 15 17 8 9 1009.1 1008.0 0.0
28/01:00am 19.5 15.6 3.6 35 7.6 SSW 13 15 7 8 1009.4 1008.3 0.0
28/12:30am 19.9 15.7 3.6 34 7.8 SSW 15 17 8 9 1009.7 1008.6 0.0
28/12:00am 20.3 16.3 3.1 32 8.2 SSW 13 15 7 8 1009.7 1008.6 0.0
 
Date/Time
EDT
Temp
°C
App
Temp
°C
Dew
Point
Rel
Hum
%
Delta-T
°C
Wind Press
QNH
hPa
Press
MSL
hPa
Rain
since 9 am
mm
Dir
 
Spd
km/h
Gust
km/h
Spd
kts
Gust
kts
27/11:30pm 21.7 17.6 2.4 28 9.1 S 13 15 7 8 1009.9 1008.7 0.0
27/11:00pm 22.7 18.2 2.2 26 9.8 S 15 19 8 10 1010.0 1008.8 0.0
27/10:30pm 23.7 18.3 1.4 23 10.5 S 19 26 10 14 1009.7 1008.6 0.0
27/10:00pm 23.9 18.9 1.5 23 10.6 SSE 17 20 9 11 1009.6 1008.5 0.0
27/09:30pm 24.1 19.6 2.3 24 10.5 SSE 15 19 8 10 1009.4 1008.3 0.0
27/09:00pm 24.9 19.6 1.7 22 11.1 S 19 24 10 13 1008.9 1007.8 0.0
27/08:30pm 25.8 19.1 1.2 20 11.7 S 26 32 14 17 1008.5 1007.4 0.0
27/08:00pm 26.6 18.8 1.8 20 12.1 S 32 41 17 22 1007.9 1006.8 0.0
27/07:30pm 27.5 19.7 2.6 20 12.3 S 33 43 18 23 1007.7 1006.6 0.0
27/07:00pm 28.1 20.2 2.3 19 12.8 SSW 33 43 18 23 1007.5 1006.4 0.0
27/06:30pm 27.8 20.0 2.8 20 12.4 S 33 41 18 22 1007.3 1006.2 0.0
27/06:00pm 28.4 20.8 2.6 19 12.9 S 32 43 17 23 1007.3 1006.2 0.0
27/05:30pm 28.2 21.2 1.7 18 13.0 S 28 41 15 22 1007.6 1006.5 0.0
27/05:00pm 28.1 20.8 2.3 19 12.8 S 30 41 16 22 1007.8 1006.7 0.0
27/04:30pm 28.1 20.5 3.0 20 12.6 S 32 41 17 22 1008.0 1006.9 0.0
27/04:00pm 28.2 21.3 2.4 19 12.8 SSW 28 41 15 22 1008.3 1007.2 0.0
27/03:30pm 28.4 21.5 2.6 19 12.8 S 28 39 15 21 1008.7 1007.6 0.0
27/03:00pm 28.2 20.9 2.4 19 12.8 S 30 43 16 23 1009.1 1008.0 0.0
27/02:30pm 28.0 21.2 3.0 20 12.5 S 28 46 15 25 1009.5 1008.4 0.0
27/02:00pm 27.5 20.2 2.6 20 12.3 S 30 39 16 21 1009.9 1008.7 0.0
27/01:45pm 27.1 20.4 3.6 22 11.8 S 28 46 15 25 1010.2 1009.0 0.0
27/01:30pm 26.4 19.6 3.0 22 11.6 S 28 41 15 22 1010.3 1009.1 0.0
27/01:00pm 27.2 20.9 3.7 22 11.8 S 26 43 14 23 1010.8 1009.6 0.0
27/12:30pm 25.8 19.0 3.1 23 11.2 SSE 28 44 15 24 1011.2 1010.1 0.0
27/12:00pm 24.9 17.6 2.4 23 10.9 SSE 30 41 16 22 1011.5 1010.4 0.0
27/11:30am 24.6 17.7 2.7 24 10.6 SSE 28 39 15 21 1011.7 1010.6 0.0
27/11:00am 23.6 16.4 3.0 26 10.0 SE 30 39 16 21 1012.0 1010.9 0.0
27/10:30am 23.3 16.2 3.3 27 9.7 SSE 30 39 16 21 1012.0 1010.9 0.0
27/10:00am 22.3 16.3 3.4 29 9.2 SE 24 32 13 17 1012.1 1011.0 0.0
27/09:30am 21.4 14.9 2.6 29 8.9 SSE 26 32 14 17 1012.2 1011.1 0.0
27/09:00am 20.6 14.5 2.9 31 8.4 SSE 24 32 13 17 1012.1 1011.0 0.0
27/08:30am 19.2 12.6 2.1 32 7.9 S 26 33 14 18 1011.8 1010.7 0.0
27/08:00am 18.0 12.5 1.9 34 7.3 S 20 28 11 15 1011.4 1010.3 0.0
27/07:30am 16.5 12.1 2.9 40 6.2 S 15 19 8 10 1011.1 1010.0 0.0
27/07:00am 15.8 11.8 2.6 41 6.0 S 13 15 7 8 1011.0 1009.8 0.0
27/06:30am 16.4 11.9 2.4 39 6.4 S 15 19 8 10 1010.8 1009.6 0.0
27/06:00am 17.0 11.8 2.2 37 6.7 S 19 22 10 12 1010.5 1009.3 0.0
27/05:30am 17.1 12.3 2.7 38 6.6 S 17 20 9 11 1010.5 1009.3 0.0
27/05:00am 17.0 11.9 3.3 40 6.4 S 19 22 10 12 1010.3 1009.1 0.0
27/04:30am 17.6 12.4 3.5 39 6.6 S 20 24 11 13 1010.3 1009.1 0.0
27/04:00am 18.0 12.8 3.5 38 6.8 S 20 24 11 13 1010.4 1009.2 0.0
27/03:30am 18.5 13.3 3.6 37 7.0 S 20 24 11 13 1010.6 1009.4 0.0
27/03:00am 18.7 13.5 3.7 37 7.1 S 20 26 11 14 1010.7 1009.5 0.0
27/02:30am 18.8 13.6 3.8 37 7.1 SSW 20 26 11 14 1010.9 1009.7 0.0
27/02:00am 19.0 13.9 4.0 37 7.2 SSW 20 24 11 13 1011.2 1010.1 0.0
27/01:30am 19.3 14.2 3.9 36 7.4 SSW 20 24 11 13 1011.5 1010.4 0.0
27/01:00am 19.4 14.8 3.6 35 7.5 SSW 17 20 9 11 1011.9 1010.8 0.0
27/12:30am 19.5 14.9 3.6 35 7.6 SSW 17 19 9 10 1012.1 1011.0 0.0
27/12:00am 19.7 16.0 4.2 36 7.5 SSW 13 15 7 8 1012.1 1011.0 0.0
 
Date/Time
EDT
Temp
°C
App
Temp
°C
Dew
Point
Rel
Hum
%
Delta-T
°C
Wind Press
QNH
hPa
Press
MSL
hPa
Rain
since 9 am
mm
Dir
 
Spd
km/h
Gust
km/h
Spd
kts
Gust
kts
26/11:30pm 20.5 16.7 4.1 34 7.9 SSW 13 13 7 7 1012.0 1010.9 0.0
26/11:00pm 21.0 17.5 3.7 32 8.4 S 11 11 6 6 1011.8 1010.7 0.0
26/10:30pm 22.1 18.5 2.8 28 9.2 S 11 13 6 7 1011.6 1010.5 0.0
26/10:00pm 23.0 18.9 2.5 26 9.8 SSE 13 15 7 8 1011.4 1010.3 0.0
26/09:30pm 23.6 19.5 2.4 25 10.2 SSE 13 15 7 8 1011.2 1010.1 0.0
26/09:00pm 24.6 20.1 2.1 23 10.8 S 15 20 8 11 1010.9 1009.7 0.0
26/08:30pm 25.7 19.7 1.1 20 11.7 S 22 30 12 16 1010.8 1009.6 0.0
26/08:00pm 26.4 20.1 1.7 20 12.0 SSW 24 32 13 17 1010.5 1009.3 0.0
26/07:30pm 26.8 19.7 1.3 19 12.3 S 28 33 15 18 1010.2 1009.0 0.0
26/07:00pm 27.2 20.5 1.6 19 12.4 S 26 35 14 19 1009.7 1008.6 0.0

Other Formats:

Comma delimited format used in spreadsheet applications
http://www.bom.gov.au/fwo/IDN60801/IDN60801.95699.axf

JavaScript Object Notation format (JSON) in row-major order
http://www.bom.gov.au/fwo/IDN60801/IDN60801.95699.json